Time;durP1;ratioP1;P1;durP2;ratioP2;P2;SDS_P1;SDS_P2;PMS_P1;PMS_P2;Temp;Humidity;BMP_temperature;BMP_pressure;BME280_temperature;BME280_humidity;BME280_pressure;Samples;Min_cycle;Max_cycle;Signal;HPM_P1;HPM_P2
2024/03/07 18:34:07;;;;;;;21.42;13.23;;;;;;;3.65;100.00;102485.72;6145869;23;20101;-74
2024/03/07 18:36:34;;;;;;;23.65;12.68;;;;;;;3.61;100.00;102483.63;6123576;23;20037;-84
2024/03/07 18:39:10;;;;;;;17.58;11.20;;;;;;;3.61;100.00;102486.28;6120354;23;20013;-74
2024/03/07 18:41:36;;;;;;;22.85;11.90;;;;;;;3.57;100.00;102483.16;6123365;23;20207;-76
2024/03/07 18:44:02;;;;;;;21.27;11.98;;;;;;;3.58;100.00;102483.97;6098013;23;20013;-74
2024/03/07 18:46:31;;;;;;;23.02;12.13;;;;;;;3.58;100.00;102476.03;6148608;23;20035;-76
2024/03/07 18:48:58;;;;;;;23.52;12.10;;;;;;;3.55;100.00;102478.03;6150061;23;20046;-76
2024/03/07 18:51:24;;;;;;;;;;;;;;;3.53;100.00;102473.94;6123990;23;20017;-73
2024/03/07 18:53:52;;;;;;;20.27;11.48;;;;;;;3.48;100.00;102479.75;6146567;23;19940;-74
2024/03/07 18:56:20;;;;;;;21.42;11.55;;;;;;;3.48;100.00;102466.50;6120197;23;20032;-77
2024/03/07 18:58:45;;;;;;;21.75;11.43;;;;;;;3.40;100.00;102477.19;6093751;23;20025;-74
2024/03/07 19:01:11;;;;;;;19.88;10.15;;;;;;;3.38;100.00;102467.75;6147012;23;20017;-75
2024/03/07 19:03:37;;;;;;;19.52;12.02;;;;;;;3.38;100.00;102473.06;6147814;23;20013;-75
2024/03/07 19:06:03;;;;;;;18.58;11.20;;;;;;;3.32;100.00;102471.13;6142828;23;20010;-75
2024/03/07 19:08:29;;;;;;;19.45;10.90;;;;;;;3.30;100.00;102466.00;6145244;23;20013;-75
2024/03/07 19:10:59;;;;;;;20.77;11.70;;;;;;;3.24;100.00;102466.72;6147140;23;20041;-76
2024/03/07 19:13:25;;;;;;;18.08;11.40;;;;;;;3.23;100.00;102468.56;6095059;23;20048;-75
2024/03/07 19:15:52;;;;;;;18.85;11.32;;;;;;;3.22;100.00;102471.38;6117950;23;20623;-76
2024/03/07 19:18:18;;;;;;;22.45;10.63;;;;;;;3.19;100.00;102459.34;6145063;23;20018;-74
2024/03/07 19:20:46;;;;;;;18.38;9.95;;;;;;;3.15;100.00;102463.34;6142277;23;20048;-74
2024/03/07 19:23:13;;;;;;;21.65;11.48;;;;;;;3.10;100.00;102460.38;6117945;23;20459;-75
2024/03/07 19:25:45;;;;;;;19.23;11.23;;;;;;;3.06;100.00;102461.75;6118132;23;20422;-75
2024/03/07 19:28:12;;;;;;;24.23;11.20;;;;;;;3.04;100.00;102460.28;6117935;23;20494;-74
2024/03/07 19:30:51;;;;;;;19.75;11.55;;;;;;;2.98;100.00;102461.81;6145932;23;20025;-74
2024/03/07 19:33:20;;;;;;;18.58;11.02;;;;;;;2.97;100.00;102465.47;6147271;23;20017;-74
2024/03/07 19:35:50;;;;;;;21.17;12.25;;;;;;;2.94;100.00;102461.34;6124102;23;20017;-75
2024/03/07 19:38:16;;;;;;;20.00;11.52;;;;;;;2.88;100.00;102462.06;6125875;23;20024;-76
2024/03/07 19:40:42;;;;;;;18.05;10.35;;;;;;;2.84;100.00;102459.94;6150724;23;20076;-74
2024/03/07 19:43:08;;;;;;;17.58;11.15;;;;;;;2.78;100.00;102458.84;6148347;23;20063;-73
2024/03/07 19:45:38;;;;;;;20.05;11.60;;;;;;;2.76;100.00;102463.47;6150152;23;20530;-75
2024/03/07 19:48:05;;;;;;;19.98;10.80;;;;;;;2.70;100.00;102470.25;6100251;23;20120;-74
2024/03/07 19:50:31;;;;;;;19.33;10.38;;;;;;;2.66;100.00;102469.00;6148753;23;20016;-76
2024/03/07 19:52:59;;;;;;;20.00;11.32;;;;;;;2.62;100.00;102469.50;6123371;23;20016;-77
2024/03/07 19:55:26;;;;;;;20.42;10.68;;;;;;;2.57;100.00;102463.91;6123021;23;20103;-75
2024/03/07 19:57:52;;;;;;;;;;;;;;;2.54;100.00;102472.19;6099798;23;20079;-74
2024/03/07 20:00:19;;;;;;;18.80;10.30;;;;;;;2.47;100.00;102470.25;6177426;23;19912;-75
2024/03/07 20:02:49;;;;;;;16.98;9.98;;;;;;;2.45;100.00;102474.06;6127314;23;20017;-75
2024/03/07 20:05:23;;;;;;;22.17;10.50;;;;;;;2.38;100.00;102476.59;6179647;23;20021;-75
2024/03/07 20:07:49;;;;;;;19.20;10.48;;;;;;;2.32;100.00;102471.97;6152494;23;20044;-75
2024/03/07 20:10:14;;;;;;;19.30;11.00;;;;;;;2.31;100.00;102470.34;6153369;23;20025;-75
2024/03/07 20:12:41;;;;;;;21.10;11.27;;;;;;;2.27;100.00;102471.66;6151274;23;20040;-74
2024/03/07 20:15:10;;;;;;;22.05;11.10;;;;;;;2.26;100.00;102477.13;6121838;23;20028;-76
2024/03/07 20:17:42;;;;;;;17.38;10.45;;;;;;;2.24;100.00;102469.38;6150934;23;20017;-74
2024/03/07 20:20:14;;;;;;;16.83;9.70;;;;;;;2.21;100.00;102468.88;6150666;23;20041;-74
2024/03/07 20:22:45;;;;;;;16.77;9.25;;;;;;;2.19;100.00;102466.41;6127737;23;20008;-76
2024/03/07 20:25:15;;;;;;;19.67;10.35;;;;;;;2.19;100.00;102469.06;6151846;23;20012;-75
2024/03/07 20:27:45;;;;;;;18.98;10.85;;;;;;;2.22;100.00;102466.06;6126133;23;20013;-75
2024/03/07 20:30:15;;;;;;;19.05;10.60;;;;;;;2.23;100.00;102473.00;6149200;23;20009;-74
2024/03/07 20:32:43;;;;;;;19.40;10.20;;;;;;;2.24;100.00;102473.84;6126181;23;20016;-75
2024/03/07 20:35:11;;;;;;;18.58;10.23;;;;;;;2.24;100.00;102464.09;6125227;23;20017;-75
2024/03/07 20:37:40;;;;;;;18.10;10.20;;;;;;;2.27;100.00;102474.31;6150950;23;20060;-75
2024/03/07 20:40:13;;;;;;;22.38;10.48;;;;;;;2.27;100.00;102465.56;6126127;23;20020;-75
2024/03/07 20:42:39;;;;;;;21.73;11.57;;;;;;;2.28;100.00;102475.94;6102665;23;20021;-74
2024/03/07 20:45:07;;;;;;;21.35;11.68;;;;;;;2.31;100.00;102466.88;6126194;23;20013;-75
2024/03/07 20:47:41;;;;;;;18.58;11.25;;;;;;;2.31;100.00;102465.06;6099248;23;20350;-73
2024/03/07 20:50:09;;;;;;;20.13;12.20;;;;;;;2.26;100.00;102467.38;6148669;23;20013;-76
2024/03/07 20:52:40;;;;;;;19.65;10.65;;;;;;;2.28;100.00;102469.84;6150390;23;20020;-75
2024/03/07 20:55:07;;;;;;;18.80;9.52;;;;;;;2.28;100.00;102470.66;6098976;23;20992;-75
2024/03/07 20:57:33;;;;;;;18.10;9.82;;;;;;;2.27;100.00;102469.03;6150163;23;20012;-75
2024/03/07 20:59:59;;;;;;;18.52;10.52;;;;;;;2.24;100.00;102466.75;6176200;23;20016;-73
2024/03/07 21:02:25;;;;;;;21.08;11.18;;;;;;;2.27;100.00;102468.19;6150306;23;20025;-75
2024/03/07 21:04:51;;;;;;;21.52;10.57;;;;;;;2.22;100.00;102467.88;6177276;23;20509;-74
2024/03/07 21:07:17;;;;;;;18.77;11.23;;;;;;;2.15;100.00;102467.75;6125462;23;20009;-75
2024/03/07 21:09:42;;;;;;;18.75;10.63;;;;;;;2.16;100.00;102472.03;6126313;23;20029;-76
2024/03/07 21:12:08;;;;;;;18.65;10.40;;;;;;;2.18;100.00;102462.13;6124057;23;20031;-75
2024/03/07 21:14:34;;;;;;;;;;;;;;;2.17;100.00;102477.19;6125461;23;20087;-74
2024/03/07 21:16:59;;;;;;;20.55;10.50;;;;;;;2.14;100.00;102474.84;6101076;23;20249;-74
2024/03/07 21:19:25;;;;;;;18.77;10.00;;;;;;;2.12;100.00;102465.47;6099528;23;20005;-75
2024/03/07 21:21:51;;;;;;;19.90;10.95;;;;;;;2.05;100.00;102469.78;6123143;23;20020;-74
2024/03/07 21:24:16;;;;;;;20.40;10.23;;;;;;;2.03;100.00;102466.47;6175448;23;20139;-75
2024/03/07 21:26:42;;;;;;;20.50;12.25;;;;;;;2.02;100.00;102464.81;6099116;23;20160;-74
2024/03/07 21:29:08;;;;;;;18.83;10.25;;;;;;;1.99;100.00;102463.34;6149758;23;20679;-75
2024/03/07 21:31:34;;;;;;;21.10;10.43;;;;;;;1.99;100.00;102466.00;6099704;23;20028;-75
2024/03/07 21:33:59;;;;;;;17.92;10.82;;;;;;;1.97;100.00;102456.59;6124902;23;20358;-75
2024/03/07 21:36:26;;;;;;;16.05;9.65;;;;;;;1.95;100.00;102463.88;6176504;23;20012;-75
2024/03/07 21:38:52;;;;;;;18.65;10.65;;;;;;;1.92;100.00;102457.09;6175681;23;20019;-75
2024/03/07 21:41:17;;;;;;;19.02;9.63;;;;;;;1.87;100.00;102460.25;6123320;23;20096;-75
2024/03/07 21:43:43;;;;;;;17.77;10.93;;;;;;;1.84;100.00;102450.03;6123694;23;20064;-75
2024/03/07 21:46:10;;;;;;;19.77;11.43;;;;;;;1.81;100.00;102446.91;6121695;23;20021;-74
2024/03/07 21:48:35;;;;;;;19.17;10.40;;;;;;;1.78;100.00;102448.06;6123321;23;20038;-74
2024/03/07 21:51:01;;;;;;;20.40;11.32;;;;;;;1.78;100.00;102460.47;6121108;23;20009;-74
2024/03/07 21:53:27;;;;;;;17.67;10.00;;;;;;;1.71;100.00;102462.94;6125220;23;20017;-76
2024/03/07 21:56:01;;;;;;;21.38;10.27;;;;;;;1.66;100.00;102457.34;6123982;23;20621;-74
2024/03/07 21:58:27;;;;;;;20.92;10.02;;;;;;;1.63;100.00;102457.69;6125499;23;20450;-75
2024/03/07 22:00:54;;;;;;;19.45;11.80;;;;;;;1.63;100.00;102449.78;6124229;23;20344;-75
2024/03/07 22:03:19;;;;;;;;;;;;;;;1.61;100.00;102457.00;6121242;23;20082;-74
2024/03/07 22:05:46;;;;;;;15.82;8.70;;;;;;;1.58;100.00;102457.38;6149129;23;20337;-76
2024/03/07 22:08:11;;;;;;;;;;;;;;;1.59;100.00;102453.72;6149900;23;20024;-75
2024/03/07 22:10:38;;;;;;;16.35;8.73;;;;;;;1.55;100.00;102462.97;6175563;23;20338;-74
2024/03/07 22:13:09;;;;;;;18.92;9.80;;;;;;;1.52;100.00;102453.56;6120770;23;20399;-75
2024/03/07 22:15:35;;;;;;;16.25;9.05;;;;;;;1.48;100.00;102465.44;6126012;23;20028;-74
2024/03/07 22:18:01;;;;;;;19.88;9.90;;;;;;;1.46;100.00;102464.81;6121308;23;20024;-74
2024/03/07 22:20:26;;;;;;;16.67;9.75;;;;;;;1.45;100.00;102455.25;6102112;23;20067;-74
2024/03/07 22:22:52;;;;;;;18.70;9.75;;;;;;;1.41;100.00;102453.91;6100343;23;20013;-75
2024/03/07 22:25:20;;;;;;;19.15;10.27;;;;;;;1.37;100.00;102463.16;6126615;23;20012;-75
2024/03/07 22:27:48;;;;;;;15.45;9.38;;;;;;;1.33;100.00;102454.75;6176916;23;20067;-74
2024/03/07 22:30:16;;;;;;;17.88;9.40;;;;;;;1.29;100.00;102458.72;6126663;23;20753;-74
2024/03/07 22:32:42;;;;;;;19.77;10.20;;;;;;;1.29;100.00;102458.72;6103807;23;20044;-76
2024/03/07 22:35:09;;;;;;;21.00;11.15;;;;;;;1.25;100.00;102462.69;6128962;23;20111;-73
2024/03/07 22:37:36;;;;;;;17.48;9.60;;;;;;;1.21;100.00;102456.06;6102390;23;20103;-74
2024/03/07 22:40:04;;;;;;;18.02;10.57;;;;;;;1.20;100.00;102458.88;6123869;23;20017;-73
2024/03/07 22:42:30;;;;;;;19.13;9.48;;;;;;;1.18;100.00;102450.31;6174704;23;20040;-74
2024/03/07 22:44:56;;;;;;;17.17;9.43;;;;;;;1.16;100.00;102458.41;6098928;23;20119;-74
2024/03/07 22:47:22;;;;;;;19.90;11.90;;;;;;;1.11;100.00;102455.44;6118695;23;20371;-77
2024/03/07 22:49:48;;;;;;;18.20;9.48;;;;;;;1.07;100.00;102454.09;6099254;23;20017;-74
2024/03/07 22:52:15;;;;;;;17.65;10.07;;;;;;;1.05;100.00;102449.00;6174229;23;20066;-74
2024/03/07 22:54:41;;;;;;;;;;;;;;;1.05;100.00;102456.09;6100051;23;20071;-74
2024/03/07 22:57:06;;;;;;;18.58;8.98;;;;;;;1.02;100.00;102446.69;6122344;23;19912;-74
2024/03/07 22:59:32;;;;;;;17.10;9.38;;;;;;;0.98;100.00;102442.72;6123791;23;20028;-74
2024/03/07 23:01:59;;;;;;;17.83;9.88;;;;;;;0.97;100.00;102442.91;6122410;23;20005;-74
2024/03/07 23:04:25;;;;;;;18.48;9.93;;;;;;;0.99;100.00;102440.91;6123516;23;20051;-74
2024/03/07 23:06:51;;;;;;;19.40;10.20;;;;;;;1.00;100.00;102437.28;6123996;23;20013;-74
2024/03/07 23:09:18;;;;;;;17.08;9.73;;;;;;;0.99;100.00;102435.63;6122127;23;20039;-74
2024/03/07 23:11:44;;;;;;;18.73;9.75;;;;;;;0.98;100.00;102431.34;6075355;23;20025;-73
2024/03/07 23:14:11;;;;;;;22.83;10.43;;;;;;;1.00;100.00;102426.72;6122386;23;20012;-75
2024/03/07 23:16:37;;;;;;;19.05;9.93;;;;;;;1.01;100.00;102434.47;6097859;23;20028;-75
2024/03/07 23:19:03;;;;;;;18.90;9.88;;;;;;;1.01;100.00;102420.44;6122442;23;20053;-74
2024/03/07 23:21:29;;;;;;;17.17;10.48;;;;;;;0.99;100.00;102425.09;6098678;23;20644;-77
2024/03/07 23:23:54;;;;;;;18.80;9.98;;;;;;;0.98;100.00;102413.72;6148154;23;20017;-74
2024/03/07 23:26:21;;;;;;;21.63;10.70;;;;;;;0.98;100.00;102411.06;6146707;23;20024;-73
2024/03/07 23:28:49;;;;;;;20.30;9.52;;;;;;;0.97;100.00;102411.25;6147288;23;20016;-74
2024/03/07 23:31:16;;;;;;;18.45;9.68;;;;;;;0.94;100.00;102415.00;6097484;23;20017;-74
2024/03/07 23:33:42;;;;;;;16.63;9.60;;;;;;;0.91;100.00;102420.63;6122486;23;20024;-73
2024/03/07 23:36:10;;;;;;;17.48;9.23;;;;;;;0.90;100.00;102420.81;6121565;23;20237;-74
2024/03/07 23:38:35;;;;;;;17.27;10.35;;;;;;;0.88;100.00;102420.13;6122944;23;20103;-74
2024/03/07 23:41:01;;;;;;;20.83;10.65;;;;;;;0.85;100.00;102423.91;6121536;23;20340;-75
2024/03/07 23:43:27;;;;;;;17.88;9.45;;;;;;;0.81;100.00;102418.16;6122003;23;20017;-74
2024/03/07 23:45:52;;;;;;;18.92;9.93;;;;;;;0.73;100.00;102410.22;6147507;23;20089;-74
2024/03/07 23:48:18;;;;;;;18.85;10.15;;;;;;;0.68;100.00;102412.56;6146928;23;20386;-74
2024/03/07 23:50:43;;;;;;;19.67;10.07;;;;;;;0.66;100.00;102409.22;6170423;23;20012;-76
2024/03/07 23:53:09;;;;;;;18.08;10.13;;;;;;;0.66;100.00;102408.41;6097066;23;20340;-74
2024/03/07 23:55:36;;;;;;;20.80;9.60;;;;;;;0.62;100.00;102407.94;6173727;23;20016;-76
2024/03/07 23:58:01;;;;;;;18.77;9.10;;;;;;;0.56;100.00;102400.66;6169436;23;20057;-73
